sensor_id;sensor_type;location;lat;lon;timestamp;temperature;humidity
40291;DHT22;26000;48.304;13.626;2023-02-13T00:00:33;3.00;99.90
40291;DHT22;26000;48.304;13.626;2023-02-13T00:02:59;3.10;99.90
40291;DHT22;26000;48.304;13.626;2023-02-13T00:05:25;3.00;99.90
40291;DHT22;26000;48.304;13.626;2023-02-13T00:07:50;3.00;99.90
40291;DHT22;26000;48.304;13.626;2023-02-13T00:10:16;2.90;99.90
40291;DHT22;26000;48.304;13.626;2023-02-13T00:12:42;2.90;99.90
40291;DHT22;26000;48.304;13.626;2023-02-13T00:15:08;2.90;99.90
40291;DHT22;26000;48.304;13.626;2023-02-13T00:17:34;2.90;99.90
40291;DHT22;26000;48.304;13.626;2023-02-13T00:20:00;2.90;99.90
40291;DHT22;26000;48.304;13.626;2023-02-13T00:22:26;2.80;99.90
40291;DHT22;26000;48.304;13.626;2023-02-13T00:24:52;2.90;99.90
40291;DHT22;26000;48.304;13.626;2023-02-13T00:27:17;2.90;99.90
40291;DHT22;26000;48.304;13.626;2023-02-13T00:29:43;3.00;99.90
40291;DHT22;26000;48.304;13.626;2023-02-13T00:32:09;2.90;99.90
40291;DHT22;26000;48.304;13.626;2023-02-13T00:34:34;2.90;99.90
40291;DHT22;26000;48.304;13.626;2023-02-13T00:37:00;3.00;99.90
40291;DHT22;26000;48.304;13.626;2023-02-13T00:39:26;3.00;99.90
40291;DHT22;26000;48.304;13.626;2023-02-13T00:41:52;3.10;99.90
40291;DHT22;26000;48.304;13.626;2023-02-13T00:44:17;3.10;99.90
40291;DHT22;26000;48.304;13.626;2023-02-13T00:46:43;3.10;99.90
40291;DHT22;26000;48.304;13.626;2023-02-13T00:49:09;3.10;99.90
40291;DHT22;26000;48.304;13.626;2023-02-13T00:51:34;3.10;99.90
40291;DHT22;26000;48.304;13.626;2023-02-13T00:54:00;3.20;99.90
40291;DHT22;26000;48.304;13.626;2023-02-13T00:56:26;3.20;99.90
40291;DHT22;26000;48.304;13.626;2023-02-13T00:58:52;3.10;99.90
40291;DHT22;26000;48.304;13.626;2023-02-13T01:01:17;3.20;99.90
40291;DHT22;26000;48.304;13.626;2023-02-13T01:03:43;3.30;99.90
40291;DHT22;26000;48.304;13.626;2023-02-13T01:06:08;3.30;99.90
40291;DHT22;26000;48.304;13.626;2023-02-13T01:08:37;3.30;99.90
40291;DHT22;26000;48.304;13.626;2023-02-13T01:11:03;3.40;99.90
40291;DHT22;26000;48.304;13.626;2023-02-13T01:13:28;3.40;99.90
40291;DHT22;26000;48.304;13.626;2023-02-13T01:15:54;3.30;99.90
40291;DHT22;26000;48.304;13.626;2023-02-13T01:18:20;3.30;99.90
40291;DHT22;26000;48.304;13.626;2023-02-13T01:20:59;3.30;99.90
40291;DHT22;26000;48.304;13.626;2023-02-13T01:23:29;3.30;99.90
40291;DHT22;26000;48.304;13.626;2023-02-13T01:25:54;3.30;99.90
40291;DHT22;26000;48.304;13.626;2023-02-13T01:28:20;3.40;99.90
40291;DHT22;26000;48.304;13.626;2023-02-13T01:30:52;3.40;99.90
40291;DHT22;26000;48.304;13.626;2023-02-13T01:33:17;3.30;99.90
40291;DHT22;26000;48.304;13.626;2023-02-13T01:35:43;3.30;99.90
40291;DHT22;26000;48.304;13.626;2023-02-13T01:38:09;3.30;99.90
40291;DHT22;26000;48.304;13.626;2023-02-13T01:40:34;3.40;99.90
40291;DHT22;26000;48.304;13.626;2023-02-13T01:43:00;3.30;99.90
40291;DHT22;26000;48.304;13.626;2023-02-13T01:45:30;3.40;99.90
40291;DHT22;26000;48.304;13.626;2023-02-13T01:48:28;3.30;99.90
40291;DHT22;26000;48.304;13.626;2023-02-13T01:51:01;3.30;99.90
40291;DHT22;26000;48.304;13.626;2023-02-13T01:53:55;3.30;99.90
40291;DHT22;26000;48.304;13.626;2023-02-13T01:56:35;3.30;99.90
40291;DHT22;26000;48.304;13.626;2023-02-13T01:59:06;3.30;99.90
40291;DHT22;26000;48.304;13.626;2023-02-13T02:01:33;3.30;99.90
40291;DHT22;26000;48.304;13.626;2023-02-13T02:04:13;3.30;99.90
40291;DHT22;26000;48.304;13.626;2023-02-13T02:06:45;3.30;99.90
40291;DHT22;26000;48.304;13.626;2023-02-13T02:09:15;3.30;99.90
40291;DHT22;26000;48.304;13.626;2023-02-13T02:11:51;3.30;99.90
40291;DHT22;26000;48.304;13.626;2023-02-13T02:14:18;3.30;99.90
40291;DHT22;26000;48.304;13.626;2023-02-13T02:16:44;3.20;99.90
40291;DHT22;26000;48.304;13.626;2023-02-13T02:19:58;3.30;99.90
40291;DHT22;26000;48.304;13.626;2023-02-13T02:30:45;3.30;99.90
40291;DHT22;26000;48.304;13.626;2023-02-13T02:46:40;3.40;99.90
40291;DHT22;26000;48.304;13.626;2023-02-13T02:49:31;3.30;99.90
40291;DHT22;26000;48.304;13.626;2023-02-13T02:52:21;3.30;99.90
40291;DHT22;26000;48.304;13.626;2023-02-13T02:54:50;3.30;99.90
40291;DHT22;26000;48.304;13.626;2023-02-13T02:57:58;3.30;99.90
40291;DHT22;26000;48.304;13.626;2023-02-13T03:00:44;3.30;99.90
40291;DHT22;26000;48.304;13.626;2023-02-13T03:03:30;3.30;99.90
40291;DHT22;26000;48.304;13.626;2023-02-13T03:06:23;3.30;99.90
40291;DHT22;26000;48.304;13.626;2023-02-13T03:08:53;3.30;99.90
40291;DHT22;26000;48.304;13.626;2023-02-13T03:11:39;3.30;99.90
40291;DHT22;26000;48.304;13.626;2023-02-13T03:14:26;3.30;99.90
40291;DHT22;26000;48.304;13.626;2023-02-13T03:16:53;3.40;99.90
40291;DHT22;26000;48.304;13.626;2023-02-13T03:25:37;3.30;99.90
40291;DHT22;26000;48.304;13.626;2023-02-13T03:39:20;3.30;99.90
40291;DHT22;26000;48.304;13.626;2023-02-13T03:41:54;3.40;99.90
40291;DHT22;26000;48.304;13.626;2023-02-13T03:44:26;3.40;99.90
40291;DHT22;26000;48.304;13.626;2023-02-13T03:46:57;3.40;99.90
40291;DHT22;26000;48.304;13.626;2023-02-13T03:49:37;3.40;99.90
40291;DHT22;26000;48.304;13.626;2023-02-13T03:52:31;3.40;99.90
40291;DHT22;26000;48.304;13.626;2023-02-13T03:55:00;3.40;99.90
40291;DHT22;26000;48.304;13.626;2023-02-13T03:57:48;3.40;99.90
40291;DHT22;26000;48.304;13.626;2023-02-13T04:00:39;3.40;99.90
40291;DHT22;26000;48.304;13.626;2023-02-13T04:05:47;3.40;99.90
40291;DHT22;26000;48.304;13.626;2023-02-13T04:08:14;3.50;99.90
40291;DHT22;26000;48.304;13.626;2023-02-13T04:10:59;3.40;99.90
40291;DHT22;26000;48.304;13.626;2023-02-13T04:13:37;3.50;99.90
40291;DHT22;26000;48.304;13.626;2023-02-13T04:16:09;3.50;99.90
40291;DHT22;26000;48.304;13.626;2023-02-13T04:18:36;3.60;99.90
40291;DHT22;26000;48.304;13.626;2023-02-13T04:21:05;3.60;99.90
40291;DHT22;26000;48.304;13.626;2023-02-13T04:23:31;3.50;99.90
40291;DHT22;26000;48.304;13.626;2023-02-13T04:26:00;3.40;99.90
40291;DHT22;26000;48.304;13.626;2023-02-13T04:28:26;3.30;99.90
40291;DHT22;26000;48.304;13.626;2023-02-13T04:30:52;3.30;99.90
40291;DHT22;26000;48.304;13.626;2023-02-13T04:33:17;3.30;99.90
40291;DHT22;26000;48.304;13.626;2023-02-13T04:35:43;3.30;99.90
40291;DHT22;26000;48.304;13.626;2023-02-13T04:38:09;3.40;99.90
40291;DHT22;26000;48.304;13.626;2023-02-13T04:40:34;3.40;99.90
40291;DHT22;26000;48.304;13.626;2023-02-13T04:43:00;3.30;99.90
40291;DHT22;26000;48.304;13.626;2023-02-13T04:45:26;3.30;99.90
40291;DHT22;26000;48.304;13.626;2023-02-13T04:47:53;3.30;99.90
40291;DHT22;26000;48.304;13.626;2023-02-13T04:50:20;3.40;99.90
40291;DHT22;26000;48.304;13.626;2023-02-13T04:52:46;3.30;99.90
40291;DHT22;26000;48.304;13.626;2023-02-13T04:55:12;3.20;99.90
40291;DHT22;26000;48.304;13.626;2023-02-13T04:57:38;3.20;99.90
40291;DHT22;26000;48.304;13.626;2023-02-13T05:00:05;3.20;99.90
40291;DHT22;26000;48.304;13.626;2023-02-13T05:02:31;3.20;99.90
40291;DHT22;26000;48.304;13.626;2023-02-13T05:04:56;3.30;99.90
40291;DHT22;26000;48.304;13.626;2023-02-13T05:07:22;3.30;99.90
40291;DHT22;26000;48.304;13.626;2023-02-13T05:09:47;3.30;99.90
40291;DHT22;26000;48.304;13.626;2023-02-13T05:12:13;3.20;99.90
40291;DHT22;26000;48.304;13.626;2023-02-13T05:14:39;3.30;99.90
40291;DHT22;26000;48.304;13.626;2023-02-13T05:17:04;3.30;99.90
40291;DHT22;26000;48.304;13.626;2023-02-13T05:19:30;3.20;99.90
40291;DHT22;26000;48.304;13.626;2023-02-13T05:21:56;3.10;99.90
40291;DHT22;26000;48.304;13.626;2023-02-13T05:24:40;3.20;99.90
40291;DHT22;26000;48.304;13.626;2023-02-13T05:27:05;3.20;99.90
40291;DHT22;26000;48.304;13.626;2023-02-13T05:29:31;3.20;99.90
40291;DHT22;26000;48.304;13.626;2023-02-13T05:31:57;3.10;99.90
40291;DHT22;26000;48.304;13.626;2023-02-13T05:34:25;3.00;99.90
40291;DHT22;26000;48.304;13.626;2023-02-13T05:36:51;2.90;99.90
40291;DHT22;26000;48.304;13.626;2023-02-13T05:39:17;2.90;99.90
40291;DHT22;26000;48.304;13.626;2023-02-13T05:41:44;2.90;99.90
40291;DHT22;26000;48.304;13.626;2023-02-13T05:44:10;2.90;99.90
40291;DHT22;26000;48.304;13.626;2023-02-13T05:46:37;2.90;99.90
40291;DHT22;26000;48.304;13.626;2023-02-13T05:49:04;3.00;99.90
40291;DHT22;26000;48.304;13.626;2023-02-13T05:51:29;2.90;99.90
40291;DHT22;26000;48.304;13.626;2023-02-13T05:53:55;2.90;99.90
40291;DHT22;26000;48.304;13.626;2023-02-13T05:56:21;2.90;99.90
40291;DHT22;26000;48.304;13.626;2023-02-13T05:58:49;2.90;99.90
40291;DHT22;26000;48.304;13.626;2023-02-13T06:01:15;2.90;99.90
40291;DHT22;26000;48.304;13.626;2023-02-13T06:03:40;3.00;99.90
40291;DHT22;26000;48.304;13.626;2023-02-13T06:06:06;3.00;99.90
40291;DHT22;26000;48.304;13.626;2023-02-13T06:08:32;2.90;99.90
40291;DHT22;26000;48.304;13.626;2023-02-13T06:10:57;2.90;99.90
40291;DHT22;26000;48.304;13.626;2023-02-13T06:13:23;3.10;99.90
40291;DHT22;26000;48.304;13.626;2023-02-13T06:15:48;3.00;99.90
40291;DHT22;26000;48.304;13.626;2023-02-13T06:18:15;3.10;99.90
40291;DHT22;26000;48.304;13.626;2023-02-13T06:20:41;3.00;99.90
40291;DHT22;26000;48.304;13.626;2023-02-13T06:23:07;3.00;99.90
40291;DHT22;26000;48.304;13.626;2023-02-13T06:25:34;2.90;99.90
40291;DHT22;26000;48.304;13.626;2023-02-13T06:28:00;2.80;99.90
40291;DHT22;26000;48.304;13.626;2023-02-13T06:30:26;2.80;99.90
40291;DHT22;26000;48.304;13.626;2023-02-13T06:32:51;2.80;99.90
40291;DHT22;26000;48.304;13.626;2023-02-13T06:35:17;2.70;99.90
40291;DHT22;26000;48.304;13.626;2023-02-13T06:37:43;2.60;99.90
40291;DHT22;26000;48.304;13.626;2023-02-13T06:40:10;2.70;99.90
40291;DHT22;26000;48.304;13.626;2023-02-13T06:42:36;2.70;99.90
40291;DHT22;26000;48.304;13.626;2023-02-13T06:45:02;2.60;99.90
40291;DHT22;26000;48.304;13.626;2023-02-13T06:47:28;2.60;99.90
40291;DHT22;26000;48.304;13.626;2023-02-13T06:49:53;2.50;99.90
40291;DHT22;26000;48.304;13.626;2023-02-13T06:52:19;2.60;99.90
40291;DHT22;26000;48.304;13.626;2023-02-13T06:54:45;2.60;99.90
40291;DHT22;26000;48.304;13.626;2023-02-13T06:57:10;2.60;99.90
40291;DHT22;26000;48.304;13.626;2023-02-13T06:59:36;2.50;99.90
40291;DHT22;26000;48.304;13.626;2023-02-13T07:02:01;2.60;99.90
40291;DHT22;26000;48.304;13.626;2023-02-13T07:04:27;2.60;99.90
40291;DHT22;26000;48.304;13.626;2023-02-13T07:06:56;2.60;99.90
40291;DHT22;26000;48.304;13.626;2023-02-13T07:09:22;2.70;99.90
40291;DHT22;26000;48.304;13.626;2023-02-13T07:11:49;2.70;99.90
40291;DHT22;26000;48.304;13.626;2023-02-13T07:14:14;2.60;99.90
40291;DHT22;26000;48.304;13.626;2023-02-13T07:16:40;2.70;99.90
40291;DHT22;26000;48.304;13.626;2023-02-13T07:19:06;2.70;99.90
40291;DHT22;26000;48.304;13.626;2023-02-13T07:21:31;2.70;99.90
40291;DHT22;26000;48.304;13.626;2023-02-13T07:23:57;2.70;99.90
40291;DHT22;26000;48.304;13.626;2023-02-13T07:26:23;2.70;99.90
40291;DHT22;26000;48.304;13.626;2023-02-13T07:28:48;2.60;99.90
40291;DHT22;26000;48.304;13.626;2023-02-13T07:31:14;2.60;99.90
40291;DHT22;26000;48.304;13.626;2023-02-13T07:33:39;2.60;99.90
40291;DHT22;26000;48.304;13.626;2023-02-13T07:36:05;2.70;99.90
40291;DHT22;26000;48.304;13.626;2023-02-13T07:38:33;2.60;99.90
40291;DHT22;26000;48.304;13.626;2023-02-13T07:40:59;2.70;99.90
40291;DHT22;26000;48.304;13.626;2023-02-13T07:43:26;2.70;99.90
40291;DHT22;26000;48.304;13.626;2023-02-13T07:45:51;2.80;99.90
40291;DHT22;26000;48.304;13.626;2023-02-13T07:48:23;2.80;99.90
40291;DHT22;26000;48.304;13.626;2023-02-13T07:50:51;2.90;99.90
40291;DHT22;26000;48.304;13.626;2023-02-13T07:53:17;2.90;99.90
40291;DHT22;26000;48.304;13.626;2023-02-13T07:55:43;2.90;99.90
40291;DHT22;26000;48.304;13.626;2023-02-13T07:58:08;3.00;99.90
40291;DHT22;26000;48.304;13.626;2023-02-13T08:00:34;3.00;99.90
40291;DHT22;26000;48.304;13.626;2023-02-13T08:03:00;3.10;99.90
40291;DHT22;26000;48.304;13.626;2023-02-13T08:05:26;3.10;99.90
40291;DHT22;26000;48.304;13.626;2023-02-13T08:07:52;3.20;99.90
40291;DHT22;26000;48.304;13.626;2023-02-13T08:10:18;3.30;99.90
40291;DHT22;26000;48.304;13.626;2023-02-13T08:13:03;3.30;99.90
40291;DHT22;26000;48.304;13.626;2023-02-13T08:15:29;3.30;99.90
40291;DHT22;26000;48.304;13.626;2023-02-13T08:17:54;3.30;99.90
40291;DHT22;26000;48.304;13.626;2023-02-13T08:20:20;3.40;99.90
40291;DHT22;26000;48.304;13.626;2023-02-13T08:22:45;3.40;99.90
40291;DHT22;26000;48.304;13.626;2023-02-13T08:25:12;3.50;99.90
40291;DHT22;26000;48.304;13.626;2023-02-13T08:27:37;3.60;99.90
40291;DHT22;26000;48.304;13.626;2023-02-13T08:30:04;3.70;99.90
40291;DHT22;26000;48.304;13.626;2023-02-13T08:32:30;3.80;99.90
40291;DHT22;26000;48.304;13.626;2023-02-13T08:34:56;3.90;99.90
40291;DHT22;26000;48.304;13.626;2023-02-13T08:37:23;3.90;99.90
40291;DHT22;26000;48.304;13.626;2023-02-13T08:39:49;3.70;99.90
40291;DHT22;26000;48.304;13.626;2023-02-13T08:42:14;3.70;99.90
40291;DHT22;26000;48.304;13.626;2023-02-13T08:44:40;3.70;99.90
40291;DHT22;26000;48.304;13.626;2023-02-13T08:47:07;3.70;99.90
40291;DHT22;26000;48.304;13.626;2023-02-13T08:49:33;3.70;99.90
40291;DHT22;26000;48.304;13.626;2023-02-13T08:51:59;3.70;99.90
40291;DHT22;26000;48.304;13.626;2023-02-13T08:54:25;3.70;99.90
40291;DHT22;26000;48.304;13.626;2023-02-13T08:56:52;3.80;99.90
40291;DHT22;26000;48.304;13.626;2023-02-13T08:59:18;3.80;99.90
40291;DHT22;26000;48.304;13.626;2023-02-13T09:01:43;3.90;99.90
40291;DHT22;26000;48.304;13.626;2023-02-13T09:04:09;3.90;99.90
40291;DHT22;26000;48.304;13.626;2023-02-13T09:06:35;3.80;99.90
40291;DHT22;26000;48.304;13.626;2023-02-13T09:09:00;3.90;99.90
40291;DHT22;26000;48.304;13.626;2023-02-13T09:11:26;3.80;99.90
40291;DHT22;26000;48.304;13.626;2023-02-13T09:13:52;3.80;99.90
40291;DHT22;26000;48.304;13.626;2023-02-13T09:16:18;3.80;99.90
40291;DHT22;26000;48.304;13.626;2023-02-13T09:18:48;3.90;99.90
40291;DHT22;26000;48.304;13.626;2023-02-13T09:21:15;4.00;99.90
40291;DHT22;26000;48.304;13.626;2023-02-13T09:23:42;4.10;99.90
40291;DHT22;26000;48.304;13.626;2023-02-13T09:26:10;4.10;99.90
40291;DHT22;26000;48.304;13.626;2023-02-13T09:28:36;4.20;99.90
40291;DHT22;26000;48.304;13.626;2023-02-13T09:31:13;4.30;99.90
40291;DHT22;26000;48.304;13.626;2023-02-13T09:33:40;4.30;99.90
40291;DHT22;26000;48.304;13.626;2023-02-13T09:36:08;4.40;99.90
40291;DHT22;26000;48.304;13.626;2023-02-13T09:38:34;4.40;99.90
40291;DHT22;26000;48.304;13.626;2023-02-13T09:41:05;4.50;99.90
40291;DHT22;26000;48.304;13.626;2023-02-13T09:43:36;4.50;99.90
40291;DHT22;26000;48.304;13.626;2023-02-13T09:46:26;4.50;99.90
40291;DHT22;26000;48.304;13.626;2023-02-13T09:48:55;4.60;99.90
40291;DHT22;26000;48.304;13.626;2023-02-13T09:51:23;4.60;99.90
40291;DHT22;26000;48.304;13.626;2023-02-13T09:53:59;4.70;99.90
40291;DHT22;26000;48.304;13.626;2023-02-13T09:56:49;4.70;99.90
40291;DHT22;26000;48.304;13.626;2023-02-13T10:02:41;4.80;99.90
40291;DHT22;26000;48.304;13.626;2023-02-13T10:16:31;5.10;99.90
40291;DHT22;26000;48.304;13.626;2023-02-13T10:21:51;5.30;99.90
40291;DHT22;26000;48.304;13.626;2023-02-13T10:24:35;5.40;99.90
40291;DHT22;26000;48.304;13.626;2023-02-13T10:27:24;5.50;99.90
40291;DHT22;26000;48.304;13.626;2023-02-13T10:30:14;5.50;99.90
40291;DHT22;26000;48.304;13.626;2023-02-13T10:35:36;5.60;99.90
40291;DHT22;26000;48.304;13.626;2023-02-13T10:38:15;5.40;99.90
40291;DHT22;26000;48.304;13.626;2023-02-13T10:40:52;5.50;99.90
40291;DHT22;26000;48.304;13.626;2023-02-13T10:43:23;5.50;99.90
40291;DHT22;26000;48.304;13.626;2023-02-13T10:46:13;5.50;99.90
40291;DHT22;26000;48.304;13.626;2023-02-13T10:51:44;5.60;99.90
40291;DHT22;26000;48.304;13.626;2023-02-13T10:57:15;5.80;99.90
40291;DHT22;26000;48.304;13.626;2023-02-13T10:59:56;6.00;99.90
40291;DHT22;26000;48.304;13.626;2023-02-13T11:02:25;6.10;99.90
40291;DHT22;26000;48.304;13.626;2023-02-13T11:05:01;6.20;99.90
40291;DHT22;26000;48.304;13.626;2023-02-13T11:07:27;6.20;99.90
40291;DHT22;26000;48.304;13.626;2023-02-13T11:09:59;6.30;99.90
40291;DHT22;26000;48.304;13.626;2023-02-13T11:12:27;6.40;99.90
40291;DHT22;26000;48.304;13.626;2023-02-13T11:15:02;6.50;99.90
40291;DHT22;26000;48.304;13.626;2023-02-13T11:17:30;6.50;99.90
40291;DHT22;26000;48.304;13.626;2023-02-13T11:19:59;6.70;99.90
40291;DHT22;26000;48.304;13.626;2023-02-13T11:22:35;6.70;99.90
40291;DHT22;26000;48.304;13.626;2023-02-13T11:27:47;6.90;99.90
40291;DHT22;26000;48.304;13.626;2023-02-13T11:33:22;7.00;99.90
40291;DHT22;26000;48.304;13.626;2023-02-13T11:35:48;7.10;99.90
40291;DHT22;26000;48.304;13.626;2023-02-13T11:40:45;7.10;99.90
40291;DHT22;26000;48.304;13.626;2023-02-13T11:43:34;7.00;99.90
40291;DHT22;26000;48.304;13.626;2023-02-13T11:46:42;7.00;99.90
40291;DHT22;26000;48.304;13.626;2023-02-13T11:56:56;7.10;99.90
40291;DHT22;26000;48.304;13.626;2023-02-13T11:59:24;7.20;99.90
40291;DHT22;26000;48.304;13.626;2023-02-13T12:02:12;7.30;99.90
40291;DHT22;26000;48.304;13.626;2023-02-13T12:04:38;7.50;99.90
40291;DHT22;26000;48.304;13.626;2023-02-13T12:07:30;7.50;99.90
40291;DHT22;26000;48.304;13.626;2023-02-13T12:10:18;7.70;99.90
40291;DHT22;26000;48.304;13.626;2023-02-13T12:15:32;7.70;99.90
40291;DHT22;26000;48.304;13.626;2023-02-13T12:18:33;7.50;99.90
40291;DHT22;26000;48.304;13.626;2023-02-13T12:24:29;7.40;99.90
40291;DHT22;26000;48.304;13.626;2023-02-13T12:27:03;7.40;99.90
40291;DHT22;26000;48.304;13.626;2023-02-13T12:46:57;7.50;99.90
40291;DHT22;26000;48.304;13.626;2023-02-13T12:49:47;7.40;99.90
40291;DHT22;26000;48.304;13.626;2023-02-13T12:57:33;7.30;99.90
40291;DHT22;26000;48.304;13.626;2023-02-13T13:06:26;7.20;99.90
40291;DHT22;26000;48.304;13.626;2023-02-13T13:09:01;7.30;99.90
40291;DHT22;26000;48.304;13.626;2023-02-13T13:11:39;7.20;99.90
40291;DHT22;26000;48.304;13.626;2023-02-13T13:17:03;7.10;99.90
40291;DHT22;26000;48.304;13.626;2023-02-13T13:28:21;7.10;99.90
40291;DHT22;26000;48.304;13.626;2023-02-13T13:30:48;7.20;99.90
40291;DHT22;26000;48.304;13.626;2023-02-13T13:33:19;7.10;99.90
40291;DHT22;26000;48.304;13.626;2023-02-13T13:39:05;7.10;99.90
40291;DHT22;26000;48.304;13.626;2023-02-13T13:42:04;7.10;99.90
40291;DHT22;26000;48.304;13.626;2023-02-13T13:47:47;7.10;99.90
40291;DHT22;26000;48.304;13.626;2023-02-13T13:50:21;7.20;99.90
40291;DHT22;26000;48.304;13.626;2023-02-13T13:53:18;7.40;99.90
40291;DHT22;26000;48.304;13.626;2023-02-13T13:58:45;7.40;99.90
40291;DHT22;26000;48.304;13.626;2023-02-13T14:03:41;7.40;99.90
40291;DHT22;26000;48.304;13.626;2023-02-13T14:06:14;7.40;99.90
40291;DHT22;26000;48.304;13.626;2023-02-13T14:11:28;7.40;99.90
40291;DHT22;26000;48.304;13.626;2023-02-13T14:13:54;7.30;99.90
40291;DHT22;26000;48.304;13.626;2023-02-13T14:16:40;7.20;99.90
40291;DHT22;26000;48.304;13.626;2023-02-13T14:19:29;7.30;99.90
40291;DHT22;26000;48.304;13.626;2023-02-13T14:25:04;7.30;99.90
40291;DHT22;26000;48.304;13.626;2023-02-13T14:27:36;7.30;99.90
40291;DHT22;26000;48.304;13.626;2023-02-13T14:30:04;7.20;99.90
40291;DHT22;26000;48.304;13.626;2023-02-13T14:32:32;7.20;99.90
40291;DHT22;26000;48.304;13.626;2023-02-13T14:35:01;7.20;99.90
40291;DHT22;26000;48.304;13.626;2023-02-13T14:37:36;7.20;99.90
40291;DHT22;26000;48.304;13.626;2023-02-13T14:42:57;7.10;99.90
40291;DHT22;26000;48.304;13.626;2023-02-13T14:45:29;7.10;99.90
40291;DHT22;26000;48.304;13.626;2023-02-13T14:47:57;7.00;99.90
40291;DHT22;26000;48.304;13.626;2023-02-13T14:50:45;7.00;99.90
40291;DHT22;26000;48.304;13.626;2023-02-13T14:53:25;7.00;99.90
40291;DHT22;26000;48.304;13.626;2023-02-13T14:55:57;7.00;99.90
40291;DHT22;26000;48.304;13.626;2023-02-13T14:58:34;6.90;99.90
40291;DHT22;26000;48.304;13.626;2023-02-13T15:01:10;6.90;99.90
40291;DHT22;26000;48.304;13.626;2023-02-13T15:03:45;6.90;99.90
40291;DHT22;26000;48.304;13.626;2023-02-13T15:06:25;6.90;99.90
40291;DHT22;26000;48.304;13.626;2023-02-13T15:08:52;6.80;99.90
40291;DHT22;26000;48.304;13.626;2023-02-13T15:11:39;6.70;99.90
40291;DHT22;26000;48.304;13.626;2023-02-13T15:14:30;6.60;99.90
40291;DHT22;26000;48.304;13.626;2023-02-13T15:19:32;6.50;99.90
40291;DHT22;26000;48.304;13.626;2023-02-13T15:22:01;6.40;99.90
40291;DHT22;26000;48.304;13.626;2023-02-13T15:24:52;6.20;99.90
40291;DHT22;26000;48.304;13.626;2023-02-13T15:27:26;6.30;99.90
40291;DHT22;26000;48.304;13.626;2023-02-13T15:30:17;6.30;99.90
40291;DHT22;26000;48.304;13.626;2023-02-13T15:32:42;6.30;99.90
40291;DHT22;26000;48.304;13.626;2023-02-13T15:35:21;6.30;99.90
40291;DHT22;26000;48.304;13.626;2023-02-13T15:37:48;6.30;99.90
40291;DHT22;26000;48.304;13.626;2023-02-13T15:40:31;6.10;99.90
40291;DHT22;26000;48.304;13.626;2023-02-13T15:43:00;6.10;99.90
40291;DHT22;26000;48.304;13.626;2023-02-13T15:45:27;6.00;99.90
40291;DHT22;26000;48.304;13.626;2023-02-13T15:47:54;6.00;99.90
40291;DHT22;26000;48.304;13.626;2023-02-13T15:50:32;6.00;99.90
40291;DHT22;26000;48.304;13.626;2023-02-13T15:53:00;6.00;99.90
40291;DHT22;26000;48.304;13.626;2023-02-13T15:55:29;6.10;99.90
40291;DHT22;26000;48.304;13.626;2023-02-13T15:57:57;6.10;99.90
40291;DHT22;26000;48.304;13.626;2023-02-13T16:02:56;5.90;99.90
40291;DHT22;26000;48.304;13.626;2023-02-13T16:05:23;5.80;99.90
40291;DHT22;26000;48.304;13.626;2023-02-13T16:07:58;5.70;99.90
40291;DHT22;26000;48.304;13.626;2023-02-13T16:10:31;5.70;99.90
40291;DHT22;26000;48.304;13.626;2023-02-13T16:12:58;5.70;99.90
40291;DHT22;26000;48.304;13.626;2023-02-13T16:15:28;5.60;99.90
40291;DHT22;26000;48.304;13.626;2023-02-13T16:17:55;5.50;99.90
40291;DHT22;26000;48.304;13.626;2023-02-13T16:20:27;5.40;99.90
40291;DHT22;26000;48.304;13.626;2023-02-13T16:25:30;5.30;99.90
40291;DHT22;26000;48.304;13.626;2023-02-13T16:28:44;5.20;99.90
40291;DHT22;26000;48.304;13.626;2023-02-13T16:30:46;5.20;99.90
40291;DHT22;26000;48.304;13.626;2023-02-13T16:38:33;5.00;99.90
40291;DHT22;26000;48.304;13.626;2023-02-13T16:49:01;4.80;99.90
40291;DHT22;26000;48.304;13.626;2023-02-13T17:07:30;4.50;99.90
40291;DHT22;26000;48.304;13.626;2023-02-13T17:10:03;4.50;99.90
40291;DHT22;26000;48.304;13.626;2023-02-13T17:12:30;4.40;99.90
40291;DHT22;26000;48.304;13.626;2023-02-13T17:14:58;4.40;99.90
40291;DHT22;26000;48.304;13.626;2023-02-13T17:17:29;4.40;99.90
40291;DHT22;26000;48.304;13.626;2023-02-13T17:19:55;4.30;99.90
40291;DHT22;26000;48.304;13.626;2023-02-13T17:22:29;4.20;99.90
40291;DHT22;26000;48.304;13.626;2023-02-13T17:24:57;4.10;99.90
40291;DHT22;26000;48.304;13.626;2023-02-13T17:27:22;4.10;99.90
40291;DHT22;26000;48.304;13.626;2023-02-13T17:29:48;4.00;99.90
40291;DHT22;26000;48.304;13.626;2023-02-13T17:32:17;4.00;99.90
40291;DHT22;26000;48.304;13.626;2023-02-13T17:34:43;3.90;99.90
40291;DHT22;26000;48.304;13.626;2023-02-13T17:37:26;3.90;99.90
40291;DHT22;26000;48.304;13.626;2023-02-13T17:39:53;3.80;99.90
40291;DHT22;26000;48.304;13.626;2023-02-13T17:42:22;3.80;99.90
40291;DHT22;26000;48.304;13.626;2023-02-13T17:44:49;3.70;99.90
40291;DHT22;26000;48.304;13.626;2023-02-13T17:47:15;3.60;99.90
40291;DHT22;26000;48.304;13.626;2023-02-13T17:49:41;3.50;99.90
40291;DHT22;26000;48.304;13.626;2023-02-13T17:52:12;3.40;99.90
40291;DHT22;26000;48.304;13.626;2023-02-13T17:54:39;3.40;99.90
40291;DHT22;26000;48.304;13.626;2023-02-13T17:57:04;3.40;99.90
40291;DHT22;26000;48.304;13.626;2023-02-13T17:59:30;3.30;99.90
40291;DHT22;26000;48.304;13.626;2023-02-13T18:01:56;3.30;99.90
40291;DHT22;26000;48.304;13.626;2023-02-13T18:04:21;3.30;99.90
40291;DHT22;26000;48.304;13.626;2023-02-13T18:06:50;3.30;99.90
40291;DHT22;26000;48.304;13.626;2023-02-13T18:09:16;3.20;99.90
40291;DHT22;26000;48.304;13.626;2023-02-13T18:11:42;3.10;99.90
40291;DHT22;26000;48.304;13.626;2023-02-13T18:14:10;3.00;99.90
40291;DHT22;26000;48.304;13.626;2023-02-13T18:16:36;3.00;99.90
40291;DHT22;26000;48.304;13.626;2023-02-13T18:19:02;3.00;99.90
40291;DHT22;26000;48.304;13.626;2023-02-13T18:21:30;2.90;99.90
40291;DHT22;26000;48.304;13.626;2023-02-13T18:23:55;2.90;99.90
40291;DHT22;26000;48.304;13.626;2023-02-13T18:26:21;2.90;99.90
40291;DHT22;26000;48.304;13.626;2023-02-13T18:28:47;2.90;99.90
40291;DHT22;26000;48.304;13.626;2023-02-13T18:31:17;2.90;99.90
40291;DHT22;26000;48.304;13.626;2023-02-13T18:33:43;2.80;99.90
40291;DHT22;26000;48.304;13.626;2023-02-13T18:36:09;2.90;99.90
40291;DHT22;26000;48.304;13.626;2023-02-13T18:38:34;2.80;99.90
40291;DHT22;26000;48.304;13.626;2023-02-13T18:41:01;2.80;99.90
40291;DHT22;26000;48.304;13.626;2023-02-13T18:43:27;2.80;99.90
40291;DHT22;26000;48.304;13.626;2023-02-13T18:45:52;2.80;99.90
40291;DHT22;26000;48.304;13.626;2023-02-13T18:48:18;2.80;99.90
40291;DHT22;26000;48.304;13.626;2023-02-13T18:50:44;2.80;99.90
40291;DHT22;26000;48.304;13.626;2023-02-13T18:53:09;2.80;99.90
40291;DHT22;26000;48.304;13.626;2023-02-13T18:55:35;2.80;99.90
40291;DHT22;26000;48.304;13.626;2023-02-13T18:58:00;2.90;99.90